Time;durP1;ratioP1;P1;durP2;ratioP2;P2;SDS_P1;SDS_P2;PMS_P1;PMS_P2;Temp;Humidity;BMP_temperature;BMP_pressure;BME280_temperature;BME280_humidity;BME280_pressure;Samples;Min_cycle;Max_cycle;Signal;HPM_P1;HPM_P2
2022/09/12 00:00:13;;;;;;;4.72;2.95;;;;;;;;;;4965662;28;20045;-83
2022/09/12 00:02:38;;;;;;;4.13;2.95;;;;;;;;;;4981136;28;20491;-82
2022/09/12 00:05:06;;;;;;;3.35;2.63;;;;;;;;;;4965440;28;20025;-82
2022/09/12 00:07:31;;;;;;;5.47;2.50;;;;;;;;;;4981672;28;20075;-82
2022/09/12 00:09:57;;;;;;;4.18;2.85;;;;;;;;;;4972307;28;20030;-82
2022/09/12 00:12:22;;;;;;;3.67;2.80;;;;;;;;;;4981043;28;20527;-83
2022/09/12 00:14:47;;;;;;;4.25;2.67;;;;;;;;;;4981113;28;20045;-82
2022/09/12 00:17:14;;;;;;;3.40;2.40;;;;;;;;;;4965033;28;20045;-82
2022/09/12 00:19:39;;;;;;;4.43;2.53;;;;;;;;;;4981447;28;20044;-82
2022/09/12 00:22:05;;;;;;;5.38;3.85;;;;;;;;;;4997623;28;20038;-83
2022/09/12 00:24:32;;;;;;;3.42;2.30;;;;;;;;;;4981310;28;20120;-82
2022/09/12 00:26:57;;;;;;;3.33;2.38;;;;;;;;;;5013583;28;20037;-83
2022/09/12 00:29:23;;;;;;;3.88;2.60;;;;;;;;;;4982002;28;20116;-83
2022/09/12 00:31:48;;;;;;;3.28;2.33;;;;;;;;;;4978266;28;20064;-82
2022/09/12 00:34:14;;;;;;;3.45;2.50;;;;;;;;;;4981865;28;20060;-82
2022/09/12 00:36:39;;;;;;;3.75;2.30;;;;;;;;;;5000159;28;20030;-82
2022/09/12 00:39:05;;;;;;;4.13;2.60;;;;;;;;;;4984800;28;20025;-82
2022/09/12 00:41:37;;;;;;;3.33;2.75;;;;;;;;;;4985023;28;20448;-83
2022/09/12 00:44:22;;;;;;;3.00;2.42;;;;;;;;;;5000757;28;20499;-81
2022/09/12 00:46:53;;;;;;;4.85;2.58;;;;;;;;;;5017422;28;20459;-83
2022/09/12 00:49:27;;;;;;;3.13;2.70;;;;;;;;;;5001555;28;20407;-82
2022/09/12 00:51:55;;;;;;;3.65;2.80;;;;;;;;;;5018020;28;20092;-83
2022/09/12 00:54:23;;;;;;;3.60;2.63;;;;;;;;;;5017225;28;20029;-83
2022/09/12 00:56:49;;;;;;;4.78;3.00;;;;;;;;;;5001194;28;20041;-82
2022/09/12 00:59:17;;;;;;;3.40;2.40;;;;;;;;;;5000884;28;20036;-82
2022/09/12 01:01:43;;;;;;;3.92;2.50;;;;;;;;;;5000453;28;20095;-82
2022/09/12 01:04:09;;;;;;;3.45;2.10;;;;;;;;;;4984870;28;20484;-82
2022/09/12 01:06:36;;;;;;;3.08;2.30;;;;;;;;;;5000680;28;20033;-82
2022/09/12 01:09:03;;;;;;;3.28;2.42;;;;;;;;;;5001208;28;20044;-82
2022/09/12 01:11:35;;;;;;;3.22;2.63;;;;;;;;;;5000866;28;20075;-82
2022/09/12 01:14:00;;;;;;;3.25;2.70;;;;;;;;;;5034172;28;20040;-82
2022/09/12 01:16:27;;;;;;;4.60;3.13;;;;;;;;;;4984024;28;20050;-83
2022/09/12 01:19:30;;;;;;;3.53;2.60;;;;;;;;;;5016958;28;20095;-83
2022/09/12 01:22:17;;;;;;;3.95;2.67;;;;;;;;;;5016508;28;20831;-83
2022/09/12 01:24:58;;;;;;;4.00;2.33;;;;;;;;;;5024707;28;20030;-83
2022/09/12 01:27:38;;;;;;;3.47;2.67;;;;;;;;;;5013576;28;20117;-82
2022/09/12 01:30:45;;;;;;;6.53;2.63;;;;;;;;;;5000942;28;20029;-82
2022/09/12 01:33:26;;;;;;;5.38;2.65;;;;;;;;;;5005941;28;20128;-82
2022/09/12 01:36:10;;;;;;;4.63;2.72;;;;;;;;;;5016267;28;20455;-83
2022/09/12 01:38:37;;;;;;;4.53;2.75;;;;;;;;;;5016256;28;20047;-83
2022/09/12 01:41:26;;;;;;;4.65;2.60;;;;;;;;;;4983482;28;20026;-82
2022/09/12 01:44:14;;;;;;;3.38;2.60;;;;;;;;;;4999641;28;20030;-82
2022/09/12 01:46:45;;;;;;;4.40;2.42;;;;;;;;;;4986132;28;20124;-83
2022/09/12 01:49:15;;;;;;;3.85;2.85;;;;;;;;;;5016482;28;20079;-82
2022/09/12 01:51:44;;;;;;;3.60;2.50;;;;;;;;;;4984000;28;20041;-82
2022/09/12 01:54:42;;;;;;;2.88;2.30;;;;;;;;;;4984608;28;20064;-82
2022/09/12 01:57:12;;;;;;;3.67;2.70;;;;;;;;;;5001902;28;20096;-83
2022/09/12 01:59:40;;;;;;;3.10;2.67;;;;;;;;;;4983654;28;20068;-82
2022/09/12 02:02:08;;;;;;;3.00;2.45;;;;;;;;;;4984260;28;20038;-82
2022/09/12 02:04:44;;;;;;;2.72;2.40;;;;;;;;;;4968127;28;20030;-83
2022/09/12 02:07:13;;;;;;;3.92;2.33;;;;;;;;;;4967416;28;20060;-82
2022/09/12 02:09:53;;;;;;;3.25;2.58;;;;;;;;;;4983839;28;20459;-82
2022/09/12 02:12:22;;;;;;;3.53;2.47;;;;;;;;;;4999381;28;20412;-83
2022/09/12 02:14:51;;;;;;;3.15;2.35;;;;;;;;;;4983765;28;20091;-83
2022/09/12 02:17:19;;;;;;;3.28;2.80;;;;;;;;;;5000307;28;20107;-83
2022/09/12 02:19:53;;;;;;;3.83;2.42;;;;;;;;;;4975895;28;20096;-82
2022/09/12 02:22:20;;;;;;;2.90;2.13;;;;;;;;;;4980572;28;20030;-83
2022/09/12 02:24:47;;;;;;;3.33;2.35;;;;;;;;;;4979957;28;20084;-82
2022/09/12 02:27:28;;;;;;;3.28;2.67;;;;;;;;;;4979826;28;20040;-82
2022/09/12 02:29:53;;;;;;;3.60;2.97;;;;;;;;;;4981977;28;20053;-82
2022/09/12 02:32:55;;;;;;;3.97;2.47;;;;;;;;;;5015763;28;20041;-83
2022/09/12 02:35:39;;;;;;;3.70;2.60;;;;;;;;;;5031975;28;20041;-83
2022/09/12 02:38:13;;;;;;;3.55;2.63;;;;;;;;;;4998828;28;20025;-83
2022/09/12 02:40:39;;;;;;;3.38;2.88;;;;;;;;;;4983432;28;20037;-83
2022/09/12 02:43:04;;;;;;;4.13;2.45;;;;;;;;;;4982048;28;20087;-83
2022/09/12 02:45:33;;;;;;;2.97;2.63;;;;;;;;;;4982634;28;20045;-83
2022/09/12 02:48:23;;;;;;;3.97;2.53;;;;;;;;;;4967544;28;20026;-82
2022/09/12 02:50:48;;;;;;;6.22;2.92;;;;;;;;;;5015056;28;20129;-82
2022/09/12 02:53:14;;;;;;;3.95;2.72;;;;;;;;;;4981597;28;20108;-83
2022/09/12 02:55:39;;;;;;;3.15;2.33;;;;;;;;;;4982399;28;20045;-82
2022/09/12 02:58:06;;;;;;;4.38;3.08;;;;;;;;;;4966269;28;20025;-82
2022/09/12 03:00:39;;;;;;;3.53;2.83;;;;;;;;;;4982704;28;20041;-83
2022/09/12 03:03:23;;;;;;;4.50;2.70;;;;;;;;;;4983970;28;20053;-82
2022/09/12 03:05:55;;;;;;;3.42;2.72;;;;;;;;;;4998398;28;20033;-82
2022/09/12 03:08:50;;;;;;;3.50;2.53;;;;;;;;;;4982148;28;20120;-82
2022/09/12 03:11:18;;;;;;;3.67;2.88;;;;;;;;;;4981972;28;20045;-82
2022/09/12 03:14:00;;;;;;;2.92;2.20;;;;;;;;;;5013782;28;20036;-83
2022/09/12 03:17:03;;;;;;;3.33;2.50;;;;;;;;;;5014946;28;20049;-83
2022/09/12 03:19:40;;;;;;;3.55;2.60;;;;;;;;;;5014484;28;20037;-82
2022/09/12 03:22:22;;;;;;;4.25;2.65;;;;;;;;;;4999166;28;20124;-83
2022/09/12 03:24:55;;;;;;;4.63;3.00;;;;;;;;;;4998157;28;20029;-83
2022/09/12 03:27:40;;;;;;;3.00;2.22;;;;;;;;;;4998564;28;20044;-82
2022/09/12 03:30:07;;;;;;;3.85;2.45;;;;;;;;;;4998512;28;20025;-83
2022/09/12 03:32:46;;;;;;;4.50;2.47;;;;;;;;;;4998492;28;20048;-83
2022/09/12 03:35:12;;;;;;;3.95;2.58;;;;;;;;;;4998195;28;20060;-84
2022/09/12 03:37:38;;;;;;;4.13;2.75;;;;;;;;;;4978639;28;20403;-83
2022/09/12 03:40:04;;;;;;;3.60;2.53;;;;;;;;;;4961906;28;20126;-83
2022/09/12 03:42:29;;;;;;;4.72;2.70;;;;;;;;;;4962581;28;20040;-83
2022/09/12 03:44:56;;;;;;;3.85;2.85;;;;;;;;;;4978482;28;20069;-83
2022/09/12 03:47:21;;;;;;;3.00;2.42;;;;;;;;;;4994485;28;20167;-83
2022/09/12 03:49:47;;;;;;;3.65;2.40;;;;;;;;;;4962112;28;20180;-84
2022/09/12 03:52:12;;;;;;;4.78;2.65;;;;;;;;;;4962002;28;20088;-83
2022/09/12 03:54:38;;;;;;;3.92;2.85;;;;;;;;;;4994301;28;20030;-83
2022/09/12 03:57:04;;;;;;;4.50;2.53;;;;;;;;;;4962437;28;20034;-83
2022/09/12 03:59:30;;;;;;;3.17;2.67;;;;;;;;;;4994413;28;20037;-83
2022/09/12 04:01:55;;;;;;;3.08;2.38;;;;;;;;;;4994863;28;20061;-83
2022/09/12 04:04:21;;;;;;;3.85;2.50;;;;;;;;;;4993727;28;20408;-83
2022/09/12 04:06:46;;;;;;;3.75;2.45;;;;;;;;;;5000267;28;20050;-84
2022/09/12 04:09:11;;;;;;;3.53;2.78;;;;;;;;;;4997515;28;20518;-83
2022/09/12 04:11:38;;;;;;;3.55;2.70;;;;;;;;;;4997398;28;20037;-84
2022/09/12 04:14:04;;;;;;;3.03;2.50;;;;;;;;;;4997456;28;20132;-83
2022/09/12 04:16:29;;;;;;;3.90;2.53;;;;;;;;;;4997397;28;20029;-83
2022/09/12 04:18:55;;;;;;;3.58;2.63;;;;;;;;;;5013769;28;20041;-84
2022/09/12 04:21:21;;;;;;;3.35;2.60;;;;;;;;;;4997362;28;20087;-83
2022/09/12 04:23:46;;;;;;;2.95;2.33;;;;;;;;;;4980977;28;20034;-84
2022/09/12 04:26:12;;;;;;;3.83;2.83;;;;;;;;;;4981005;28;20098;-83
2022/09/12 04:28:38;;;;;;;3.33;2.40;;;;;;;;;;4996394;28;20512;-84
2022/09/12 04:31:22;;;;;;;3.50;2.40;;;;;;;;;;4981026;28;20060;-84
2022/09/12 04:33:56;;;;;;;4.90;2.50;;;;;;;;;;4997418;28;20037;-83
2022/09/12 04:36:23;;;;;;;3.22;2.20;;;;;;;;;;4996535;28;20030;-84
2022/09/12 04:38:49;;;;;;;5.75;2.95;;;;;;;;;;4980156;28;20037;-84
2022/09/12 04:41:19;;;;;;;2.75;2.13;;;;;;;;;;4981266;28;20411;-84
2022/09/12 04:43:47;;;;;;;3.58;2.55;;;;;;;;;;4996997;28;20080;-84
2022/09/12 04:46:14;;;;;;;2.70;2.03;;;;;;;;;;4965995;28;20053;-83
2022/09/12 04:48:40;;;;;;;3.60;2.90;;;;;;;;;;4997789;28;20037;-85
2022/09/12 04:51:16;;;;;;;3.00;2.50;;;;;;;;;;4981385;28;20022;-84
2022/09/12 04:53:42;;;;;;;3.75;2.90;;;;;;;;;;4981377;28;20037;-85
2022/09/12 04:56:09;;;;;;;3.95;2.55;;;;;;;;;;4964990;28;20126;-84
2022/09/12 04:58:34;;;;;;;2.95;2.35;;;;;;;;;;4981067;28;20061;-84
2022/09/12 05:01:10;;;;;;;3.97;2.38;;;;;;;;;;4966348;28;20591;-84
2022/09/12 05:03:37;;;;;;;4.53;2.97;;;;;;;;;;4978289;28;20492;-84
2022/09/12 05:06:04;;;;;;;3.80;2.65;;;;;;;;;;4993673;28;20045;-84
2022/09/12 05:08:30;;;;;;;3.08;2.40;;;;;;;;;;5001306;28;20045;-83
2022/09/12 05:10:56;;;;;;;4.80;2.47;;;;;;;;;;4978148;28;20073;-82
2022/09/12 05:13:21;;;;;;;5.25;2.85;;;;;;;;;;4985972;28;20422;-83
2022/09/12 05:15:54;;;;;;;4.10;2.83;;;;;;;;;;4977604;28;20088;-82
2022/09/12 05:18:20;;;;;;;5.93;3.05;;;;;;;;;;4992732;28;20033;-86
2022/09/12 05:20:53;;;;;;;7.90;3.65;;;;;;;;;;4985269;28;20124;-87
2022/09/12 05:23:21;;;;;;;;;;;;;;;;;;4992142;28;20026;-87
2022/09/12 05:25:51;;;;;;;5.72;3.78;;;;;;;;;;5013611;28;19995;-86
2022/09/12 05:28:17;;;;;;;5.00;3.55;;;;;;;;;;5000804;28;20033;-86
2022/09/12 05:30:44;;;;;;;5.55;3.63;;;;;;;;;;4983972;28;20124;-83
2022/09/12 05:33:11;;;;;;;5.18;3.47;;;;;;;;;;4988093;28;20033;-85
2022/09/12 05:35:39;;;;;;;6.07;3.20;;;;;;;;;;4994653;28;20487;-86
2022/09/12 05:38:08;;;;;;;6.70;3.53;;;;;;;;;;4988413;28;20068;-83
2022/09/12 05:40:33;;;;;;;4.97;3.22;;;;;;;;;;4981059;28;20057;-83
2022/09/12 05:42:59;;;;;;;4.00;3.10;;;;;;;;;;4996813;28;20069;-84
2022/09/12 05:45:25;;;;;;;3.83;2.90;;;;;;;;;;4980570;28;20045;-84
2022/09/12 05:47:52;;;;;;;3.38;2.55;;;;;;;;;;4980760;28;20034;-83
2022/09/12 05:50:18;;;;;;;3.85;2.47;;;;;;;;;;4964418;28;20034;-84
2022/09/12 05:52:44;;;;;;;4.25;3.13;;;;;;;;;;4980710;28;20041;-83
2022/09/12 05:55:10;;;;;;;3.70;3.13;;;;;;;;;;4980375;28;20028;-83
2022/09/12 05:57:35;;;;;;;4.88;2.85;;;;;;;;;;4996361;28;20034;-84
2022/09/12 06:00:02;;;;;;;4.88;2.80;;;;;;;;;;4981730;28;20048;-84
2022/09/12 06:02:28;;;;;;;4.45;2.85;;;;;;;;;;4991168;28;20034;-83
2022/09/12 06:04:53;;;;;;;3.70;2.90;;;;;;;;;;4980104;28;20045;-83
2022/09/12 06:07:19;;;;;;;5.75;3.30;;;;;;;;;;4963610;28;20443;-82
2022/09/12 06:09:44;;;;;;;5.32;2.95;;;;;;;;;;4996665;28;20412;-84
2022/09/12 06:12:10;;;;;;;5.35;3.58;;;;;;;;;;4963902;28;20038;-82
2022/09/12 06:14:35;;;;;;;5.82;2.97;;;;;;;;;;4980493;28;20432;-83
2022/09/12 06:17:01;;;;;;;10.25;3.35;;;;;;;;;;4980299;28;20096;-85
2022/09/12 06:19:27;;;;;;;7.80;3.85;;;;;;;;;;4979987;28;20472;-84
2022/09/12 06:21:52;;;;;;;7.22;3.35;;;;;;;;;;4979888;28;20037;-83
2022/09/12 06:24:18;;;;;;;11.20;3.72;;;;;;;;;;4996224;28;20455;-83
2022/09/12 06:26:44;;;;;;;5.57;3.13;;;;;;;;;;4996629;28;20045;-82
2022/09/12 06:29:10;;;;;;;5.40;3.78;;;;;;;;;;4963799;28;20030;-82
2022/09/12 06:31:37;;;;;;;8.00;3.63;;;;;;;;;;4988848;28;20057;-82
2022/09/12 06:34:04;;;;;;;8.98;3.53;;;;;;;;;;4979400;28;20130;-82
2022/09/12 06:36:31;;;;;;;6.22;2.97;;;;;;;;;;5014306;28;20098;-84
2022/09/12 06:39:02;;;;;;;7.05;3.15;;;;;;;;;;4983033;28;20385;-83
2022/09/12 06:41:28;;;;;;;4.78;3.72;;;;;;;;;;4966185;28;20068;-83
2022/09/12 06:43:54;;;;;;;4.28;3.13;;;;;;;;;;4982536;28;20103;-83
2022/09/12 06:46:20;;;;;;;4.97;2.90;;;;;;;;;;4966435;28;20483;-83
2022/09/12 06:48:45;;;;;;;4.53;3.45;;;;;;;;;;4966507;28;20032;-82
2022/09/12 06:51:14;;;;;;;6.10;3.90;;;;;;;;;;4982815;28;20124;-84
2022/09/12 06:53:39;;;;;;;4.07;3.58;;;;;;;;;;4966710;28;20518;-84
2022/09/12 06:56:06;;;;;;;8.05;3.65;;;;;;;;;;4982241;28;20061;-85
2022/09/12 06:58:31;;;;;;;4.90;3.60;;;;;;;;;;4998754;28;20385;-83
2022/09/12 07:01:03;;;;;;;5.60;3.70;;;;;;;;;;4966243;28;20056;-83
2022/09/12 07:03:29;;;;;;;5.40;3.55;;;;;;;;;;4985649;28;20060;-84
2022/09/12 07:05:54;;;;;;;6.38;3.80;;;;;;;;;;4962644;28;20045;-84
2022/09/12 07:08:20;;;;;;;4.75;3.47;;;;;;;;;;4979095;28;20033;-84
2022/09/12 07:10:45;;;;;;;5.20;3.53;;;;;;;;;;4979288;28;20068;-83
2022/09/12 07:13:10;;;;;;;6.55;4.00;;;;;;;;;;4978727;28;20492;-83
2022/09/12 07:15:36;;;;;;;7.15;3.78;;;;;;;;;;4995506;28;20057;-84
2022/09/12 07:18:02;;;;;;;5.50;3.80;;;;;;;;;;4978657;28;20039;-84
2022/09/12 07:20:28;;;;;;;7.03;3.90;;;;;;;;;;4978931;28;20045;-85
2022/09/12 07:22:54;;;;;;;9.50;3.63;;;;;;;;;;4978704;28;20045;-82
2022/09/12 07:25:19;;;;;;;6.63;3.55;;;;;;;;;;4978755;28;20401;-83
2022/09/12 07:27:45;;;;;;;5.82;4.18;;;;;;;;;;4978378;28;20076;-82
2022/09/12 07:30:10;;;;;;;6.65;3.40;;;;;;;;;;4998962;28;20037;-81
2022/09/12 07:32:36;;;;;;;5.03;3.30;;;;;;;;;;4997512;28;20381;-82
2022/09/12 07:35:02;;;;;;;6.45;3.88;;;;;;;;;;4997884;28;20094;-82
2022/09/12 07:37:30;;;;;;;7.72;4.60;;;;;;;;;;5014123;28;20041;-82
2022/09/12 07:39:56;;;;;;;7.72;3.55;;;;;;;;;;4981595;28;20037;-82
2022/09/12 07:42:21;;;;;;;5.82;4.30;;;;;;;;;;4981568;28;20037;-82
2022/09/12 07:44:47;;;;;;;5.75;3.90;;;;;;;;;;4981463;28;20064;-82
2022/09/12 07:47:12;;;;;;;9.38;4.10;;;;;;;;;;4965168;28;20126;-81
2022/09/12 07:49:38;;;;;;;5.78;3.72;;;;;;;;;;4981587;28;20492;-82
2022/09/12 07:52:03;;;;;;;5.32;3.80;;;;;;;;;;4981635;28;20033;-86
2022/09/12 07:54:29;;;;;;;5.18;3.47;;;;;;;;;;4982158;28;20029;-86
2022/09/12 07:56:55;;;;;;;4.97;3.58;;;;;;;;;;4965687;28;20025;-87
2022/09/12 07:59:21;;;;;;;4.15;3.42;;;;;;;;;;4965511;28;20411;-82
2022/09/12 08:01:47;;;;;;;5.30;3.72;;;;;;;;;;4981312;28;20038;-82
2022/09/12 08:04:13;;;;;;;5.13;3.38;;;;;;;;;;4991677;28;20041;-82
2022/09/12 08:06:38;;;;;;;5.35;3.67;;;;;;;;;;4978256;28;20026;-82
2022/09/12 08:09:04;;;;;;;7.50;4.18;;;;;;;;;;4994220;28;20165;-82
2022/09/12 08:11:29;;;;;;;5.78;3.35;;;;;;;;;;4994128;28;20030;-83
2022/09/12 08:13:56;;;;;;;8.15;3.45;;;;;;;;;;4977731;28;20038;-82
2022/09/12 08:16:24;;;;;;;4.75;3.20;;;;;;;;;;4961988;28;20116;-83
2022/09/12 08:18:50;;;;;;;6.03;3.85;;;;;;;;;;4978312;28;20041;-82
2022/09/12 08:21:22;;;;;;;6.25;4.18;;;;;;;;;;4961839;28;20060;-82
2022/09/12 08:24:01;;;;;;;6.95;4.10;;;;;;;;;;4978376;28;20084;-82
2022/09/12 08:26:27;;;;;;;5.32;3.55;;;;;;;;;;4979044;28;20042;-82
2022/09/12 08:28:52;;;;;;;7.18;3.67;;;;;;;;;;4961743;28;20562;-82
2022/09/12 08:31:19;;;;;;;10.38;4.38;;;;;;;;;;4987563;28;20412;-82
2022/09/12 08:33:44;;;;;;;5.57;3.72;;;;;;;;;;4994003;28;20095;-82
2022/09/12 08:36:15;;;;;;;5.93;4.28;;;;;;;;;;4993609;28;20038;-82
2022/09/12 08:38:42;;;;;;;6.05;3.80;;;;;;;;;;4981140;28;20033;-82
2022/09/12 08:41:33;;;;;;;4.50;3.45;;;;;;;;;;4981046;28;20048;-82
2022/09/12 08:44:17;;;;;;;5.95;3.60;;;;;;;;;;4985735;28;20109;-82
2022/09/12 08:46:55;;;;;;;5.20;3.47;;;;;;;;;;5013566;28;20041;-82
2022/09/12 08:49:50;;;;;;;4.63;3.15;;;;;;;;;;5013314;28;20091;-82
2022/09/12 08:52:37;;;;;;;5.53;3.35;;;;;;;;;;4957764;28;20060;-82
2022/09/12 08:55:05;;;;;;;5.43;4.20;;;;;;;;;;5033937;28;20574;-82
2022/09/12 08:57:30;;;;;;;4.53;3.55;;;;;;;;;;4985725;28;20030;-82
2022/09/12 08:59:56;;;;;;;4.97;3.40;;;;;;;;;;5001344;28;20435;-82
2022/09/12 09:02:33;;;;;;;5.47;3.28;;;;;;;;;;4968555;28;20029;-82
2022/09/12 09:05:22;;;;;;;4.80;3.33;;;;;;;;;;5001465;28;20033;-82
2022/09/12 09:08:15;;;;;;;5.43;3.67;;;;;;;;;;5000775;28;20034;-82
2022/09/12 09:10:52;;;;;;;5.93;2.85;;;;;;;;;;5033421;28;20061;-82
2022/09/12 09:16:29;;;;;;;5.07;3.58;;;;;;;;;;5019459;28;20099;-82
2022/09/12 09:18:56;;;;;;;6.78;3.03;;;;;;;;;;5033417;28;20029;-81
2022/09/12 09:21:51;;;;;;;4.93;3.22;;;;;;;;;;4984624;28;20041;-81
2022/09/12 09:24:18;;;;;;;5.60;3.22;;;;;;;;;;5011020;28;20077;-80
2022/09/12 09:26:55;;;;;;;6.20;3.72;;;;;;;;;;5000445;28;20116;-81
2022/09/12 09:29:36;;;;;;;5.35;3.63;;;;;;;;;;5016844;28;20056;-81
2022/09/12 09:32:03;;;;;;;4.63;2.88;;;;;;;;;;5001926;28;20034;-81
2022/09/12 09:34:30;;;;;;;4.85;3.00;;;;;;;;;;5000403;28;20040;-82
2022/09/12 09:37:18;;;;;;;5.75;3.25;;;;;;;;;;5016724;28;20522;-81
2022/09/12 09:40:11;;;;;;;5.25;3.00;;;;;;;;;;5000376;28;20040;-82
2022/09/12 09:42:59;;;;;;;5.05;2.83;;;;;;;;;;5032664;28;20045;-82
2022/09/12 09:45:26;;;;;;;4.20;2.88;;;;;;;;;;4987644;28;20076;-82
2022/09/12 09:48:21;;;;;;;4.50;3.08;;;;;;;;;;4984665;28;20561;-83
2022/09/12 09:50:48;;;;;;;5.50;3.30;;;;;;;;;;4984110;28;20040;-82
2022/09/12 09:53:46;;;;;;;4.00;2.47;;;;;;;;;;4984028;28;20051;-82
2022/09/12 09:56:28;;;;;;;4.43;2.92;;;;;;;;;;5000159;28;20053;-82
2022/09/12 09:58:53;;;;;;;4.32;3.30;;;;;;;;;;4999833;28;20064;-82
2022/09/12 10:01:19;;;;;;;3.30;2.30;;;;;;;;;;4983638;28;20034;-81
2022/09/12 10:03:52;;;;;;;4.55;2.80;;;;;;;;;;4963471;28;20118;-82
2022/09/12 10:06:31;;;;;;;3.25;2.20;;;;;;;;;;4996609;28;20073;-82
2022/09/12 10:09:20;;;;;;;4.05;2.50;;;;;;;;;;4979925;28;20655;-81
2022/09/12 10:11:46;;;;;;;3.65;2.22;;;;;;;;;;5013441;28;20505;-81
2022/09/12 10:14:33;;;;;;;3.90;2.55;;;;;;;;;;4980147;28;20128;-81
2022/09/12 10:16:59;;;;;;;4.78;3.00;;;;;;;;;;4996845;28;20030;-81
2022/09/12 10:19:38;;;;;;;4.35;2.53;;;;;;;;;;4979929;28;20398;-81
2022/09/12 10:22:04;;;;;;;5.80;2.90;;;;;;;;;;4996384;28;20072;-81
2022/09/12 10:24:31;;;;;;;5.68;2.55;;;;;;;;;;4979994;28;20492;-81
2022/09/12 10:27:14;;;;;;;4.55;2.78;;;;;;;;;;4996089;28;20036;-81
2022/09/12 10:29:44;;;;;;;;;;;;;;;;;;4997653;28;20057;-81
2022/09/12 10:32:11;;;;;;;3.90;2.55;;;;;;;;;;5031808;28;20380;-81
2022/09/12 10:34:38;;;;;;;3.72;2.70;;;;;;;;;;4983246;28;20033;-80
2022/09/12 10:37:05;;;;;;;5.68;2.25;;;;;;;;;;5031324;28;20072;-81
2022/09/12 10:39:32;;;;;;;3.58;2.10;;;;;;;;;;4982678;28;20119;-81
2022/09/12 10:41:58;;;;;;;4.07;2.08;;;;;;;;;;4983117;28;20558;-81
2022/09/12 10:44:25;;;;;;;5.35;3.00;;;;;;;;;;4982690;28;20046;-81
2022/09/12 10:46:50;;;;;;;3.50;2.65;;;;;;;;;;4983063;28;20037;-81
2022/09/12 10:49:23;;;;;;;3.33;2.15;;;;;;;;;;4998668;28;20068;-81
2022/09/12 10:51:49;;;;;;;3.30;2.45;;;;;;;;;;4983679;28;20052;-81
2022/09/12 10:54:18;;;;;;;4.15;1.80;;;;;;;;;;4966305;28;20029;-81
2022/09/12 10:56:53;;;;;;;5.30;2.60;;;;;;;;;;4982516;28;20044;-81
2022/09/12 10:59:49;;;;;;;4.45;2.22;;;;;;;;;;5031500;28;20053;-81
2022/09/12 11:02:30;;;;;;;3.78;1.70;;;;;;;;;;4998394;28;20037;-81
2022/09/12 11:05:14;;;;;;;4.57;2.63;;;;;;;;;;5015208;28;20033;-81
2022/09/12 11:07:45;;;;;;;2.72;2.08;;;;;;;;;;4999691;28;20040;-81
2022/09/12 11:10:20;;;;;;;5.00;1.60;;;;;;;;;;5014831;28;20038;-81
2022/09/12 11:13:16;;;;;;;3.53;2.45;;;;;;;;;;5031543;28;20422;-81
2022/09/12 11:15:42;;;;;;;3.40;1.73;;;;;;;;;;5000255;28;20087;-81
2022/09/12 11:18:42;;;;;;;2.65;1.70;;;;;;;;;;5031779;28;20466;-81
2022/09/12 11:21:28;;;;;;;3.58;2.00;;;;;;;;;;5031440;28;20039;-81
2022/09/12 11:24:13;;;;;;;2.35;1.88;;;;;;;;;;5013908;28;20026;-81
2022/09/12 11:27:03;;;;;;;3.22;1.73;;;;;;;;;;5031262;28;20037;-81
2022/09/12 11:29:51;;;;;;;3.35;1.55;;;;;;;;;;4998168;28;20045;-81
2022/09/12 11:32:25;;;;;;;3.50;1.40;;;;;;;;;;5014249;28;20045;-81
2022/09/12 11:35:16;;;;;;;2.47;1.60;;;;;;;;;;5014548;28;20034;-81
2022/09/12 11:37:54;;;;;;;2.80;1.55;;;;;;;;;;4998470;28;20038;-81
2022/09/12 11:40:49;;;;;;;1.95;1.35;;;;;;;;;;5013967;28;20557;-81
2022/09/12 11:43:20;;;;;;;2.28;1.50;;;;;;;;;;4998070;28;20045;-81
2022/09/12 11:45:46;;;;;;;1.88;1.30;;;;;;;;;;5014034;28;20172;-81
2022/09/12 11:48:15;;;;;;;2.53;1.52;;;;;;;;;;4981919;28;20381;-81
2022/09/12 11:50:40;;;;;;;2.63;1.52;;;;;;;;;;4982120;28;20038;-81
2022/09/12 11:53:18;;;;;;;3.67;1.80;;;;;;;;;;4997412;28;20035;-81
2022/09/12 11:55:52;;;;;;;2.53;1.52;;;;;;;;;;4981803;28;20037;-81
2022/09/12 11:58:18;;;;;;;2.28;1.60;;;;;;;;;;4982223;28;20033;-81
2022/09/12 12:00:46;;;;;;;2.67;1.52;;;;;;;;;;4981553;28;20558;-82
2022/09/12 12:03:30;;;;;;;2.33;1.27;;;;;;;;;;4983805;28;20499;-82
2022/09/12 12:06:00;;;;;;;3.10;1.63;;;;;;;;;;4978694;28;20038;-82
2022/09/12 12:08:26;;;;;;;2.50;1.50;;;;;;;;;;4994005;28;20409;-81
2022/09/12 12:10:59;;;;;;;2.38;1.70;;;;;;;;;;4978212;28;20042;-81
2022/09/12 12:13:55;;;;;;;2.33;1.50;;;;;;;;;;4979041;28;20042;-81
2022/09/12 12:16:28;;;;;;;2.05;1.30;;;;;;;;;;4979529;28;20121;-81
2022/09/12 12:18:58;;;;;;;1.80;1.50;;;;;;;;;;4978853;28;20038;-81
2022/09/12 12:21:36;;;;;;;1.77;1.20;;;;;;;;;;4977896;28;20080;-81
2022/09/12 12:24:04;;;;;;;2.55;1.60;;;;;;;;;;4978026;28;20030;-81
2022/09/12 12:26:39;;;;;;;1.90;1.33;;;;;;;;;;4993906;28;20034;-81
2022/09/12 12:29:11;;;;;;;1.33;1.10;;;;;;;;;;4994008;28;20080;-81
2022/09/12 12:31:59;;;;;;;1.92;1.25;;;;;;;;;;4997114;28;20064;-81
2022/09/12 12:34:43;;;;;;;1.50;1.10;;;;;;;;;;5031568;28;20104;-81
2022/09/12 12:37:17;;;;;;;1.70;1.15;;;;;;;;;;5029893;28;20107;-81
2022/09/12 12:39:44;;;;;;;2.47;1.58;;;;;;;;;;5013318;28;20083;-81
2022/09/12 12:42:10;;;;;;;2.95;1.52;;;;;;;;;;5029762;28;20488;-81
2022/09/12 12:44:44;;;;;;;2.15;1.20;;;;;;;;;;4964966;28;20044;-81
2022/09/12 12:47:14;;;;;;;2.13;1.13;;;;;;;;;;5029823;28;20044;-81
2022/09/12 12:49:39;;;;;;;2.03;1.30;;;;;;;;;;4997217;28;20021;-81
2022/09/12 12:52:15;;;;;;;1.60;1.10;;;;;;;;;;4980553;28;20052;-81
2022/09/12 12:54:41;;;;;;;2.58;1.20;;;;;;;;;;4997372;28;20038;-81
2022/09/12 12:57:26;;;;;;;2.33;1.25;;;;;;;;;;5013313;28;20160;-81
2022/09/12 12:59:54;;;;;;;2.15;1.30;;;;;;;;;;4981061;28;20396;-81
2022/09/12 13:02:47;;;;;;;2.28;1.27;;;;;;;;;;4997145;28;20033;-81
2022/09/12 13:05:20;;;;;;;2.25;1.02;;;;;;;;;;5029645;28;20069;-81
2022/09/12 13:07:46;;;;;;;1.60;1.00;;;;;;;;;;4996923;28;20025;-82
2022/09/12 13:10:27;;;;;;;2.35;1.10;;;;;;;;;;4997400;28;20025;-82
2022/09/12 13:12:53;;;;;;;2.05;1.23;;;;;;;;;;5014010;28;20034;-81
2022/09/12 13:15:45;;;;;;;3.35;1.27;;;;;;;;;;5013208;28;20561;-81
2022/09/12 13:18:37;;;;;;;;;;;;;;;;;;4997448;28;20030;-81
2022/09/12 13:21:09;;;;;;;2.03;1.27;;;;;;;;;;5027432;28;19915;-81
2022/09/12 13:23:34;;;;;;;2.22;1.02;;;;;;;;;;5013394;28;20080;-81
2022/09/12 13:26:00;;;;;;;2.25;1.35;;;;;;;;;;5013235;28;20042;-81
2022/09/12 13:28:26;;;;;;;1.27;0.90;;;;;;;;;;5013653;28;20088;-81
2022/09/12 13:30:59;;;;;;;2.00;1.00;;;;;;;;;;4996925;28;20041;-81
2022/09/12 13:33:50;;;;;;;1.73;1.02;;;;;;;;;;5013137;28;20101;-81
2022/09/12 13:36:32;;;;;;;1.73;1.00;;;;;;;;;;5029178;28;20078;-81
2022/09/12 13:39:10;;;;;;;;;;;;;;;;;;5013017;28;20084;-81
2022/09/12 13:41:50;;;;;;;1.30;0.90;;;;;;;;;;5013041;28;19913;-81
2022/09/12 13:44:16;;;;;;;2.10;1.20;;;;;;;;;;5014783;28;20504;-81
2022/09/12 13:46:42;;;;;;;2.42;1.45;;;;;;;;;;4996104;28;20583;-80
2022/09/12 13:49:27;;;;;;;1.83;1.13;;;;;;;;;;5011782;28;20048;-80
2022/09/12 13:52:01;;;;;;;1.45;1.00;;;;;;;;;;5012436;28;20120;-80
2022/09/12 13:54:27;;;;;;;3.30;0.90;;;;;;;;;;5011493;28;20045;-81
2022/09/12 13:56:53;;;;;;;3.00;1.40;;;;;;;;;;5011657;28;20120;-81
2022/09/12 13:59:18;;;;;;;5.38;0.95;;;;;;;;;;5011450;28;20036;-80
2022/09/12 14:01:44;;;;;;;4.75;3.22;;;;;;;;;;4994954;28;20459;-80
2022/09/12 14:07:02;;;;;;;10.40;7.55;;;;;;;;;;5017716;28;20029;-81
2022/09/12 14:09:34;;;;;;;10.77;6.82;;;;;;;;;;5015559;28;20048;-80
2022/09/12 14:11:59;;;;;;;10.77;8.15;;;;;;;;;;4999820;28;20029;-80
2022/09/12 14:14:32;;;;;;;11.95;8.05;;;;;;;;;;4999950;28;20048;-80
2022/09/12 14:16:59;;;;;;;13.35;9.30;;;;;;;;;;4999513;28;20041;-80
2022/09/12 14:19:24;;;;;;;11.40;9.73;;;;;;;;;;4999671;28;20029;-80
2022/09/12 14:21:53;;;;;;;13.77;10.55;;;;;;;;;;4983597;28;20521;-80
2022/09/12 14:24:22;;;;;;;12.73;10.55;;;;;;;;;;5014858;28;20045;-80
2022/09/12 14:26:49;;;;;;;15.10;10.88;;;;;;;;;;5000684;28;20567;-80
2022/09/12 14:29:15;;;;;;;14.48;10.90;;;;;;;;;;4999523;28;20496;-80
2022/09/12 14:31:42;;;;;;;15.85;10.95;;;;;;;;;;5008860;28;20523;-79
2022/09/12 14:34:15;;;;;;;16.30;11.40;;;;;;;;;;4996307;28;20519;-80
2022/09/12 14:36:51;;;;;;;13.52;10.85;;;;;;;;;;4983347;28;20025;-80
2022/09/12 14:39:21;;;;;;;16.60;11.43;;;;;;;;;;4998625;28;20037;-80
2022/09/12 14:41:46;;;;;;;15.10;10.73;;;;;;;;;;5015742;28;20543;-80
2022/09/12 14:44:19;;;;;;;15.27;11.38;;;;;;;;;;4967038;28;20124;-80
2022/09/12 14:46:45;;;;;;;15.75;10.65;;;;;;;;;;4983651;28;20638;-81
2022/09/12 14:49:21;;;;;;;17.52;11.07;;;;;;;;;;4982941;28;20116;-80
2022/09/12 14:51:49;;;;;;;14.40;10.00;;;;;;;;;;4983549;28;20033;-79
2022/09/12 14:54:27;;;;;;;15.75;10.93;;;;;;;;;;5014600;28;20034;-80
2022/09/12 14:56:54;;;;;;;15.80;9.70;;;;;;;;;;5032198;28;20504;-80
2022/09/12 14:59:46;;;;;;;13.82;9.35;;;;;;;;;;4983091;28;20044;-80
2022/09/12 15:02:21;;;;;;;12.20;8.82;;;;;;;;;;5011140;28;20033;-80
2022/09/12 15:04:51;;;;;;;12.40;8.95;;;;;;;;;;5031721;28;20044;-80
2022/09/12 15:07:38;;;;;;;11.25;7.53;;;;;;;;;;5015455;28;20124;-79
2022/09/12 15:10:27;;;;;;;13.35;8.10;;;;;;;;;;5014953;28;20052;-80
2022/09/12 15:13:08;;;;;;;11.05;7.50;;;;;;;;;;5015157;28;20056;-79
2022/09/12 15:15:34;;;;;;;11.25;7.43;;;;;;;;;;5032352;28;20056;-80